Time;durP1;ratioP1;P1;durP2;ratioP2;P2;SDS_P1;SDS_P2;PMS_P1;PMS_P2;Temp;Humidity;BMP_temperature;BMP_pressure;BME280_temperature;BME280_humidity;BME280_pressure;Samples;Min_cycle;Max_cycle;Signal;HPM_P1;HPM_P2
2023/05/07 00:01:57;;;;;;;17.87;16.17;;;8.70;75.70;;;;;;6226267;28;20410;-81
2023/05/07 00:05:00;;;;;;;15.20;13.87;;;8.70;75.70;;;;;;6232511;28;20250;-80
2023/05/07 00:08:04;;;;;;;17.23;15.57;;;8.70;75.60;;;;;;6227879;28;20241;-82
2023/05/07 00:11:08;;;;;;;15.13;13.70;;;8.70;75.60;;;;;;6230096;28;20577;-79
2023/05/07 00:14:11;;;;;;;15.23;13.83;;;8.80;75.60;;;;;;6228334;28;20238;-82
2023/05/07 00:17:16;;;;;;;16.20;14.70;;;8.70;75.70;;;;;;6230687;28;20234;-82
2023/05/07 00:20:19;;;;;;;16.20;14.73;;;8.80;75.30;;;;;;6234771;28;20231;-79
2023/05/07 00:23:23;;;;;;;14.73;13.30;;;8.80;75.10;;;;;;6205852;28;20242;-79
2023/05/07 00:26:27;;;;;;;13.87;12.63;;;8.80;75.20;;;;;;6218172;28;20314;-79
2023/05/07 00:29:30;;;;;;;14.73;13.47;;;8.80;75.20;;;;;;6218174;28;20255;-80
2023/05/07 00:32:34;;;;;;;15.47;13.93;;;8.80;75.30;;;;;;6216529;28;20349;-78
2023/05/07 00:35:39;;;;;;;16.50;14.97;;;8.80;75.20;;;;;;6209159;28;20727;-82
2023/05/07 00:38:42;;;;;;;15.13;13.83;;;8.80;74.90;;;;;;6209578;28;20246;-79
2023/05/07 00:41:51;;;;;;;13.83;12.73;;;8.90;74.60;;;;;;6217831;28;20659;-79
2023/05/07 00:44:55;;;;;;;14.43;13.30;;;8.80;74.60;;;;;;6213520;28;20243;-79
2023/05/07 00:48:00;;;;;;;14.97;13.77;;;8.80;74.70;;;;;;6211355;28;20617;-80
2023/05/07 00:51:04;;;;;;;14.03;12.97;;;8.70;74.90;;;;;;6200186;28;20251;-80
2023/05/07 00:54:07;;;;;;;14.53;13.27;;;8.60;75.00;;;;;;6210258;28;20246;-81
2023/05/07 00:57:12;;;;;;;14.90;13.73;;;8.70;75.00;;;;;;6218160;28;20249;-80
2023/05/07 01:00:15;;;;;;;14.80;13.43;;;8.60;75.20;;;;;;6222251;28;20235;-80
2023/05/07 01:03:18;;;;;;;15.60;14.20;;;8.60;75.40;;;;;;6209718;28;20239;-80
2023/05/07 01:06:24;;;;;;;14.80;13.60;;;8.60;75.30;;;;;;6216792;28;20715;-81
2023/05/07 01:09:29;;;;;;;13.73;12.60;;;8.60;75.30;;;;;;6220299;28;20234;-81
2023/05/07 01:12:34;;;;;;;14.53;13.33;;;8.60;74.70;;;;;;6217236;28;20348;-82
2023/05/07 01:15:37;;;;;;;14.13;12.77;;;8.70;74.50;;;;;;6212764;28;20258;-79
2023/05/07 01:18:40;;;;;;;15.80;14.43;;;8.70;74.60;;;;;;6209136;28;20231;-80
2023/05/07 01:21:47;;;;;;;15.23;13.70;;;8.70;74.70;;;;;;6207119;28;20239;-79
2023/05/07 01:24:52;;;;;;;15.93;14.53;;;8.60;74.80;;;;;;6215979;28;20227;-80
2023/05/07 01:27:55;;;;;;;16.27;14.70;;;8.60;74.80;;;;;;6205972;28;20393;-79
2023/05/07 01:31:03;;;;;;;14.00;12.90;;;8.60;74.70;;;;;;6209344;28;20291;-82
2023/05/07 01:34:09;;;;;;;15.43;14.07;;;8.60;75.00;;;;;;6207733;28;20234;-78
2023/05/07 01:37:13;;;;;;;14.67;13.47;;;8.60;75.10;;;;;;6206186;28;20241;-80
2023/05/07 01:40:18;;;;;;;13.90;12.70;;;8.60;75.20;;;;;;6189602;28;20215;-81
2023/05/07 01:43:22;;;;;;;14.03;12.83;;;8.60;75.20;;;;;;6211759;28;20723;-81
2023/05/07 01:46:27;;;;;;;14.50;13.30;;;8.60;75.00;;;;;;6215825;28;20274;-80
2023/05/07 01:49:30;;;;;;;13.97;12.87;;;8.60;75.00;;;;;;6214729;28;20323;-80
2023/05/07 01:52:33;;;;;;;14.27;13.17;;;8.60;75.00;;;;;;6203409;28;20779;-80
2023/05/07 01:55:38;;;;;;;14.30;12.80;;;8.60;74.90;;;;;;6207931;28;20607;-79
2023/05/07 01:58:41;;;;;;;13.43;12.43;;;8.70;74.20;;;;;;6213111;28;20262;-79
2023/05/07 02:01:44;;;;;;;13.53;12.30;;;8.60;74.00;;;;;;6216250;28;20250;-80
2023/05/07 02:04:47;;;;;;;14.13;12.83;;;8.60;74.00;;;;;;6212616;28;20274;-80
2023/05/07 02:07:50;;;;;;;13.50;12.33;;;8.60;74.10;;;;;;6200481;28;20231;-80
2023/05/07 02:10:55;;;;;;;14.10;12.97;;;8.60;74.20;;;;;;6224392;28;20340;-79
2023/05/07 02:13:58;;;;;;;12.93;12.03;;;8.60;74.20;;;;;;6210402;28;20232;-79
2023/05/07 02:17:01;;;;;;;13.43;12.43;;;8.60;74.50;;;;;;6206076;28;20238;-78
2023/05/07 02:20:04;;;;;;;15.30;13.97;;;8.60;74.50;;;;;;6213801;28;20239;-81
2023/05/07 02:23:07;;;;;;;14.70;13.20;;;8.60;74.60;;;;;;6214035;28;20247;-79
2023/05/07 02:26:12;;;;;;;15.13;13.63;;;8.60;74.50;;;;;;6210222;28;20235;-81
2023/05/07 02:29:15;;;;;;;14.13;12.93;;;8.60;74.40;;;;;;6209853;28;20438;-81
2023/05/07 02:32:18;;;;;;;14.20;13.00;;;8.60;74.30;;;;;;6209871;28;20248;-81
2023/05/07 02:35:21;;;;;;;15.43;14.13;;;8.60;74.50;;;;;;6208610;28;20258;-80
2023/05/07 02:38:24;;;;;;;15.30;14.00;;;8.60;74.40;;;;;;6214808;28;20247;-80
2023/05/07 02:41:30;;;;;;;15.63;14.30;;;8.60;74.30;;;;;;6207574;28;20239;-81
2023/05/07 02:44:35;;;;;;;15.23;13.93;;;8.60;74.60;;;;;;6212843;28;20235;-82
2023/05/07 02:47:38;;;;;;;15.20;13.73;;;8.60;74.60;;;;;;6202781;28;20251;-80
2023/05/07 02:50:41;;;;;;;15.13;13.90;;;8.60;74.50;;;;;;6214714;28;20381;-80
2023/05/07 02:53:46;;;;;;;14.40;13.10;;;8.60;74.50;;;;;;6214113;28;20236;-81
2023/05/07 02:56:50;;;;;;;14.23;13.13;;;8.60;74.30;;;;;;6206465;28;20240;-81
2023/05/07 02:59:53;;;;;;;13.97;12.80;;;8.60;74.00;;;;;;6219599;28;20248;-82
2023/05/07 03:02:56;;;;;;;14.10;12.97;;;8.60;74.00;;;;;;6214402;28;20912;-81
2023/05/07 03:05:59;;;;;;;13.47;12.37;;;8.60;74.20;;;;;;6222498;28;20240;-80
2023/05/07 03:09:02;;;;;;;14.53;13.27;;;8.60;74.10;;;;;;6208866;28;20462;-78
2023/05/07 03:12:07;;;;;;;13.60;12.50;;;8.60;74.00;;;;;;6212590;28;20672;-80
2023/05/07 03:15:12;;;;;;;12.77;11.77;;;8.70;73.90;;;;;;6204883;28;20720;-81
2023/05/07 03:18:15;;;;;;;13.80;12.70;;;8.70;73.80;;;;;;6205332;28;20247;-82
2023/05/07 03:21:18;;;;;;;13.27;12.27;;;8.70;73.50;;;;;;6210945;28;20249;-80
2023/05/07 03:24:22;;;;;;;13.60;12.50;;;8.80;73.40;;;;;;6209406;28;20236;-80
2023/05/07 03:27:26;;;;;;;13.63;12.57;;;8.70;73.60;;;;;;6211728;28;20241;-81
2023/05/07 03:30:29;;;;;;;12.83;11.77;;;8.70;73.60;;;;;;6208420;28;20250;-80
2023/05/07 03:33:34;;;;;;;13.33;12.33;;;8.60;73.60;;;;;;6205248;28;20299;-82
2023/05/07 03:36:37;;;;;;;13.50;12.27;;;8.60;73.40;;;;;;6213179;28;20235;-83
2023/05/07 03:39:40;;;;;;;13.83;12.73;;;8.60;73.60;;;;;;6212587;28;20322;-79
2023/05/07 03:42:44;;;;;;;14.43;13.17;;;8.60;73.60;;;;;;6213264;28;20250;-79
2023/05/07 03:45:47;;;;;;;13.67;12.33;;;8.60;73.40;;;;;;6214051;28;20239;-82
2023/05/07 03:48:50;;;;;;;14.37;12.97;;;8.60;73.70;;;;;;6211195;28;20693;-81
2023/05/07 03:51:53;;;;;;;13.20;12.13;;;8.60;73.70;;;;;;6208681;28;20691;-82
2023/05/07 03:54:56;;;;;;;14.17;12.90;;;8.60;73.60;;;;;;6209071;28;20243;-80
2023/05/07 03:58:01;;;;;;;13.87;12.57;;;8.60;73.80;;;;;;6213777;28;20275;-79
2023/05/07 04:01:04;;;;;;;13.30;12.30;;;8.60;73.60;;;;;;6232283;28;20245;-81
2023/05/07 04:04:07;;;;;;;13.17;11.70;;;8.60;73.60;;;;;;6235467;28;20237;-80
2023/05/07 04:07:10;;;;;;;12.53;11.53;;;8.60;73.30;;;;;;6233496;28;20226;-82
2023/05/07 04:10:14;;;;;;;13.73;12.60;;;8.60;73.30;;;;;;6235097;28;20234;-81
2023/05/07 04:13:18;;;;;;;13.40;12.10;;;8.60;73.60;;;;;;6245191;28;20306;-79
2023/05/07 04:16:22;;;;;;;13.40;12.33;;;8.60;73.60;;;;;;6251268;28;20226;-81
2023/05/07 04:19:25;;;;;;;13.30;12.20;;;8.60;73.50;;;;;;6266068;28;20228;-80
2023/05/07 04:22:28;;;;;;;12.67;11.60;;;8.50;73.70;;;;;;6282671;28;20230;-81
2023/05/07 04:25:31;;;;;;;12.50;11.27;;;8.60;73.70;;;;;;6263458;28;20247;-81
2023/05/07 04:28:36;;;;;;;13.10;12.00;;;8.60;73.60;;;;;;6279234;28;20226;-81
2023/05/07 04:31:39;;;;;;;12.80;11.70;;;8.60;73.40;;;;;;6276834;28;20241;-82
2023/05/07 04:34:42;;;;;;;11.57;10.77;;;8.60;73.10;;;;;;6270867;28;20226;-79
2023/05/07 04:37:45;;;;;;;11.93;11.03;;;8.60;73.20;;;;;;6266346;28;20223;-80
2023/05/07 04:40:48;;;;;;;11.80;10.80;;;8.60;73.40;;;;;;6263810;28;20475;-81
2023/05/07 04:43:52;;;;;;;11.33;10.57;;;8.60;73.20;;;;;;6268369;28;20290;-82
2023/05/07 04:46:55;;;;;;;11.93;11.00;;;8.70;73.20;;;;;;6232297;28;20598;-81
2023/05/07 04:49:59;;;;;;;10.57;9.73;;;8.80;72.70;;;;;;6230295;28;20389;-81
2023/05/07 04:53:02;;;;;;;10.90;10.00;;;8.80;72.60;;;;;;6233442;28;20312;-80
2023/05/07 04:56:06;;;;;;;10.27;9.57;;;8.90;72.50;;;;;;6231672;28;20919;-80
2023/05/07 04:59:10;;;;;;;10.43;9.60;;;8.90;72.40;;;;;;6232855;28;20299;-81
2023/05/07 05:02:13;;;;;;;10.37;9.33;;;8.90;71.50;;;;;;6229455;28;20735;-80
2023/05/07 05:05:16;;;;;;;9.87;9.17;;;9.00;71.20;;;;;;6238525;28;20231;-82
2023/05/07 05:08:19;;;;;;;9.17;8.57;;;9.00;71.20;;;;;;6243824;28;20242;-81
2023/05/07 05:11:22;;;;;;;9.03;8.57;;;9.00;70.90;;;;;;6245685;28;20262;-80
2023/05/07 05:14:27;;;;;;;10.33;9.43;;;9.10;70.80;;;;;;6246819;28;20227;-82
2023/05/07 05:17:30;;;;;;;10.00;9.30;;;9.10;70.80;;;;;;6248660;28;20261;-82
2023/05/07 05:20:33;;;;;;;9.90;9.30;;;9.20;70.50;;;;;;6278633;28;20258;-81
2023/05/07 05:23:36;;;;;;;10.13;9.33;;;9.20;70.50;;;;;;6276486;28;20378;-82
2023/05/07 05:26:39;;;;;;;10.93;10.03;;;9.30;70.50;;;;;;6267764;28;20317;-80
2023/05/07 05:29:43;;;;;;;10.07;9.47;;;9.30;70.00;;;;;;6273171;28;20245;-82
2023/05/07 05:32:46;;;;;;;11.73;10.53;;;9.30;70.10;;;;;;6266917;28;20237;-82
2023/05/07 05:35:50;;;;;;;10.70;9.80;;;9.30;70.40;;;;;;6262428;28;20225;-81
2023/05/07 05:38:53;;;;;;;9.73;9.03;;;9.40;70.10;;;;;;6263522;28;20260;-82
2023/05/07 05:41:56;;;;;;;9.63;8.93;;;9.50;69.90;;;;;;6247966;28;20329;-81
2023/05/07 05:45:00;;;;;;;9.57;8.77;;;9.50;69.90;;;;;;6238106;28;20239;-82
2023/05/07 05:48:04;;;;;;;10.47;9.67;;;9.60;69.20;;;;;;6237786;28;20245;-83
2023/05/07 05:51:07;;;;;;;9.77;9.00;;;9.70;68.80;;;;;;6241749;28;20749;-82
2023/05/07 05:54:10;;;;;;;9.73;9.03;;;9.70;68.70;;;;;;6233942;28;20827;-83
2023/05/07 05:57:13;;;;;;;9.93;9.33;;;9.70;68.70;;;;;;6233719;28;20615;-80
2023/05/07 06:00:18;;;;;;;10.27;9.43;;;9.70;69.10;;;;;;6228671;28;20235;-80
2023/05/07 06:03:21;;;;;;;10.27;9.50;;;9.70;69.20;;;;;;6233487;28;20266;-81
2023/05/07 06:06:24;;;;;;;9.93;9.13;;;9.90;68.60;;;;;;6226215;28;20258;-79
2023/05/07 06:09:27;;;;;;;9.70;9.00;;;9.80;68.50;;;;;;6213525;28;20235;-78
2023/05/07 06:12:30;;;;;;;10.10;9.40;;;10.00;68.80;;;;;;6207839;28;20239;-80
2023/05/07 06:15:34;;;;;;;10.07;9.27;;;10.10;68.70;;;;;;6214636;28;20382;-81
2023/05/07 06:18:37;;;;;;;11.30;10.30;;;10.20;68.40;;;;;;6237362;28;20290;-82
2023/05/07 06:21:41;;;;;;;10.67;9.77;;;10.10;67.60;;;;;;6233691;28;20725;-82
2023/05/07 06:24:44;;;;;;;10.43;9.67;;;10.20;67.80;;;;;;6232115;28;20825;-80
2023/05/07 06:27:47;;;;;;;9.07;8.27;;;10.30;67.80;;;;;;6237303;28;20296;-81
2023/05/07 06:30:51;;;;;;;10.43;9.60;;;10.30;67.80;;;;;;6239740;28;20381;-81
2023/05/07 06:33:55;;;;;;;9.73;9.07;;;10.30;67.80;;;;;;6234054;28;20238;-80
2023/05/07 06:36:58;;;;;;;9.03;8.43;;;10.40;66.80;;;;;;6231839;28;20235;-82
2023/05/07 06:40:01;;;;;;;9.43;8.73;;;10.40;66.70;;;;;;6239098;28;20238;-81
2023/05/07 06:43:04;;;;;;;8.77;8.27;;;10.40;66.90;;;;;;6238911;28;20325;-82
2023/05/07 06:46:08;;;;;;;9.00;8.40;;;10.50;67.40;;;;;;6240128;28;20844;-80
2023/05/07 06:49:11;;;;;;;9.10;8.40;;;10.60;66.80;;;;;;6240081;28;23441;-82
2023/05/07 06:52:14;;;;;;;9.07;8.50;;;10.60;66.60;;;;;;6234383;28;20268;-81
2023/05/07 06:55:19;;;;;;;9.07;8.37;;;10.70;66.30;;;;;;6231719;28;20234;-80
2023/05/07 06:58:22;;;;;;;8.90;8.13;;;10.80;66.50;;;;;;6232245;28;20288;-80
2023/05/07 07:01:26;;;;;;;9.00;8.20;;;10.90;65.80;;;;;;6234988;28;20250;-79
2023/05/07 07:04:29;;;;;;;7.80;7.33;;;11.00;65.30;;;;;;6235063;28;20249;-79
2023/05/07 07:07:32;;;;;;;7.90;7.40;;;11.20;65.10;;;;;;6230290;28;20241;-80
2023/05/07 07:10:36;;;;;;;7.37;6.97;;;11.50;63.90;;;;;;6209516;28;20627;-79
2023/05/07 07:13:40;;;;;;;9.00;8.13;;;11.50;63.90;;;;;;6241240;28;20235;-82
2023/05/07 07:16:46;;;;;;;8.23;7.73;;;11.50;63.90;;;;;;6235813;28;20239;-78
2023/05/07 07:19:49;;;;;;;8.03;7.53;;;11.50;63.80;;;;;;6233963;28;20245;-81
2023/05/07 07:22:52;;;;;;;7.20;6.80;;;11.80;64.20;;;;;;6235090;28;20250;-80
2023/05/07 07:25:55;;;;;;;7.33;6.80;;;12.20;63.10;;;;;;6230469;28;20231;-76
2023/05/07 07:28:58;;;;;;;6.50;6.20;;;12.50;62.40;;;;;;6232094;28;20821;-76
2023/05/07 07:32:03;;;;;;;7.03;6.73;;;12.40;62.80;;;;;;6234161;28;20237;-75
2023/05/07 07:35:07;;;;;;;7.27;6.77;;;12.30;62.30;;;;;;6233849;28;20242;-77
2023/05/07 07:38:11;;;;;;;6.80;6.40;;;12.30;62.10;;;;;;6231513;28;20909;-80
2023/05/07 07:41:14;;;;;;;6.00;5.70;;;12.30;62.60;;;;;;6233276;28;20714;-81
2023/05/07 07:44:17;;;;;;;6.00;5.80;;;12.30;62.20;;;;;;6234544;28;20314;-79
2023/05/07 07:47:21;;;;;;;5.73;5.53;;;12.50;61.80;;;;;;6238777;28;20253;-81
2023/05/07 07:50:24;;;;;;;6.37;6.07;;;12.50;61.90;;;;;;6240771;28;20741;-82
2023/05/07 07:53:33;;;;;;;6.10;5.80;;;12.50;62.20;;;;;;6238067;28;20231;-81
2023/05/07 07:56:36;;;;;;;6.23;5.93;;;12.50;61.40;;;;;;6239276;28;20241;-81
2023/05/07 07:59:42;;;;;;;6.70;6.17;;;12.50;62.20;;;;;;6237521;28;21014;-79
2023/05/07 08:02:46;;;;;;;6.23;5.93;;;12.50;61.80;;;;;;6235362;28;20239;-81
2023/05/07 08:05:51;;;;;;;6.43;5.87;;;12.50;61.70;;;;;;6230213;28;20749;-79
2023/05/07 08:08:54;;;;;;;5.83;5.33;;;12.70;61.30;;;;;;6239784;28;20824;-78
2023/05/07 08:11:57;;;;;;;5.90;5.60;;;12.70;60.50;;;;;;6244726;28;20267;-80
2023/05/07 08:15:00;;;;;;;4.90;4.70;;;12.70;61.50;;;;;;6243083;28;20235;-81
2023/05/07 08:18:04;;;;;;;5.37;5.07;;;12.70;60.10;;;;;;6232746;28;20326;-80
2023/05/07 08:21:07;;;;;;;5.50;5.20;;;12.80;60.50;;;;;;6234987;28;20246;-79
2023/05/07 08:24:11;;;;;;;4.60;4.40;;;12.90;60.50;;;;;;6232334;28;20230;-79
2023/05/07 08:27:14;;;;;;;4.87;4.67;;;13.10;59.80;;;;;;6234325;28;20385;-80
2023/05/07 08:30:17;;;;;;;5.60;5.30;;;13.30;59.50;;;;;;6234464;28;20762;-80
2023/05/07 08:33:21;;;;;;;5.67;5.37;;;13.30;58.90;;;;;;6230020;28;20235;-80
2023/05/07 08:36:25;;;;;;;4.97;4.67;;;13.40;60.00;;;;;;6236784;28;20237;-79
2023/05/07 08:39:28;;;;;;;5.47;5.17;;;13.40;58.70;;;;;;6231671;28;20709;-81
2023/05/07 08:42:36;;;;;;;4.80;4.60;;;13.30;59.10;;;;;;6240906;28;20235;-79
2023/05/07 08:45:40;;;;;;;4.67;4.47;;;13.40;59.10;;;;;;6227387;28;20246;-80
2023/05/07 08:48:45;;;;;;;5.03;4.83;;;13.60;59.00;;;;;;6238615;28;20746;-80
2023/05/07 08:51:49;;;;;;;5.23;4.70;;;13.90;58.70;;;;;;6242536;28;20313;-82
2023/05/07 08:54:52;;;;;;;5.00;4.80;;;14.10;57.50;;;;;;6239584;28;20633;-81
2023/05/07 08:57:55;;;;;;;4.53;4.40;;;14.10;57.10;;;;;;6228903;28;20238;-80
2023/05/07 09:00:58;;;;;;;4.30;4.20;;;14.00;57.30;;;;;;6227401;28;22213;-79
2023/05/07 09:04:03;;;;;;;5.10;4.80;;;14.10;57.90;;;;;;6241061;28;20249;-81
2023/05/07 09:07:06;;;;;;;4.57;4.37;;;14.30;57.00;;;;;;6241453;28;20349;-82
2023/05/07 09:10:09;;;;;;;4.33;4.13;;;14.30;56.90;;;;;;6231172;28;20241;-79
2023/05/07 09:13:14;;;;;;;4.60;4.40;;;14.30;57.10;;;;;;6234483;28;20313;-81
2023/05/07 09:16:17;;;;;;;5.00;4.80;;;14.20;57.10;;;;;;6239776;28;20490;-80
2023/05/07 09:19:25;;;;;;;4.90;4.60;;;14.20;57.00;;;;;;6237430;28;20227;-81
2023/05/07 09:22:28;;;;;;;5.30;4.73;;;14.10;57.20;;;;;;6237938;28;20239;-81
2023/05/07 09:25:33;;;;;;;4.73;4.50;;;14.10;57.50;;;;;;6238529;28;20745;-81
2023/05/07 09:28:38;;;;;;;4.80;4.60;;;14.20;57.60;;;;;;6240628;28;20251;-82
2023/05/07 09:31:41;;;;;;;4.23;4.13;;;14.50;56.90;;;;;;6235062;28;20377;-80
2023/05/07 09:34:47;;;;;;;4.57;4.37;;;14.50;56.50;;;;;;6234209;28;20246;-81
2023/05/07 09:37:50;;;;;;;4.37;4.17;;;14.50;57.00;;;;;;6237443;28;20329;-80
2023/05/07 09:41:03;;;;;;;4.57;4.40;;;14.50;57.00;;;;;;6223627;28;20243;-80
2023/05/07 09:44:07;;;;;;;4.73;4.60;;;14.30;56.70;;;;;;6225970;28;20245;-80
2023/05/07 09:47:16;;;;;;;4.80;4.30;;;14.30;57.70;;;;;;6197060;28;20240;-81
2023/05/07 09:50:22;;;;;;;4.40;4.20;;;14.20;57.30;;;;;;6202407;28;20274;-81
2023/05/07 09:53:26;;;;;;;4.43;4.03;;;14.00;56.70;;;;;;6211123;28;20251;-81
2023/05/07 09:56:31;;;;;;;4.33;4.10;;;14.00;57.10;;;;;;6206085;28;20914;-81
2023/05/07 09:59:35;;;;;;;4.00;3.90;;;14.10;57.60;;;;;;6235348;28;20246;-81
2023/05/07 10:02:46;;;;;;;4.07;3.87;;;14.30;56.70;;;;;;6212136;28;20239;-80
2023/05/07 10:05:51;;;;;;;3.20;3.10;;;14.50;56.40;;;;;;6214819;28;20243;-79
2023/05/07 10:08:55;;;;;;;3.33;3.23;;;14.70;56.20;;;;;;6211104;28;20750;-81
2023/05/07 10:12:00;;;;;;;3.37;3.20;;;14.90;56.30;;;;;;6219265;28;20250;-80
2023/05/07 10:15:04;;;;;;;3.63;3.47;;;15.20;56.30;;;;;;6206725;28;20243;-81
2023/05/07 10:18:08;;;;;;;3.53;3.40;;;15.40;55.10;;;;;;6217821;28;20397;-81
2023/05/07 10:21:18;;;;;;;3.10;3.10;;;15.60;55.00;;;;;;6209028;28;20607;-79
2023/05/07 10:24:26;;;;;;;3.40;3.30;;;15.70;54.90;;;;;;6204701;28;20232;-80
2023/05/07 10:27:30;;;;;;;3.13;2.90;;;16.00;53.40;;;;;;6222272;28;20227;-80
2023/05/07 10:30:41;;;;;;;3.10;3.00;;;15.80;53.00;;;;;;6212611;28;20232;-84
2023/05/07 10:33:47;;;;;;;3.17;2.80;;;15.80;54.70;;;;;;6210198;28;20375;-79
2023/05/07 10:36:53;;;;;;;2.93;2.83;;;16.00;53.10;;;;;;6216641;28;20247;-81
2023/05/07 10:39:57;;;;;;;3.13;2.97;;;16.20;53.80;;;;;;6211477;28;20297;-80
2023/05/07 10:43:03;;;;;;;5.30;2.80;;;16.40;53.30;;;;;;6207720;28;20240;-80
2023/05/07 10:46:14;;;;;;;2.77;2.70;;;16.50;53.40;;;;;;6220240;28;20250;-79
2023/05/07 10:49:17;;;;;;;2.90;2.80;;;16.40;52.20;;;;;;6207508;28;20243;-78
2023/05/07 10:52:26;;;;;;;2.80;2.50;;;16.20;52.50;;;;;;6231214;28;20249;-81
2023/05/07 10:55:29;;;;;;;2.80;2.80;;;16.20;52.70;;;;;;6256673;28;20239;-80
2023/05/07 10:58:34;;;;;;;2.70;2.60;;;16.20;53.00;;;;;;6238069;28;20230;-81
2023/05/07 11:01:54;;;;;;;3.00;2.90;;;16.40;52.30;;;;;;6236019;28;20634;-80
2023/05/07 11:05:22;;;;;;;3.07;2.87;;;16.40;52.20;;;;;;6216539;28;20869;-79
2023/05/07 11:08:47;;;;;;;2.87;2.77;;;16.00;51.90;;;;;;6205170;28;20224;-79
2023/05/07 11:11:52;;;;;;;3.13;3.03;;;15.90;52.60;;;;;;6203675;28;20240;-77
2023/05/07 11:14:56;;;;;;;2.60;2.53;;;15.90;52.20;;;;;;6209783;28;20707;-79
2023/05/07 11:18:00;;;;;;;2.70;2.60;;;16.10;52.60;;;;;;6211848;28;20279;-79
2023/05/07 11:21:04;;;;;;;2.87;2.77;;;16.20;52.10;;;;;;6205607;28;20245;-81
2023/05/07 11:24:08;;;;;;;2.93;2.80;;;16.20;52.60;;;;;;6210710;28;20642;-80
2023/05/07 11:27:13;;;;;;;3.23;3.03;;;16.10;52.60;;;;;;6210918;28;20242;-81
2023/05/07 11:30:19;;;;;;;3.70;3.10;;;16.10;52.40;;;;;;6223240;28;20241;-80
2023/05/07 11:33:25;;;;;;;3.10;3.00;;;16.10;52.40;;;;;;6213926;28;20295;-80
2023/05/07 11:36:33;;;;;;;3.13;3.03;;;16.10;52.50;;;;;;6210207;28;20359;-79
2023/05/07 11:39:36;;;;;;;3.20;3.10;;;16.00;52.70;;;;;;6211156;28;20620;-79
2023/05/07 11:42:42;;;;;;;2.80;2.80;;;16.20;53.00;;;;;;6212160;28;20262;-80
2023/05/07 11:45:46;;;;;;;3.13;3.03;;;16.50;52.80;;;;;;6210166;28;20734;-82
2023/05/07 11:48:49;;;;;;;3.27;3.17;;;16.70;52.20;;;;;;6215426;28;20236;-81
2023/05/07 11:51:52;;;;;;;2.90;2.80;;;16.80;52.10;;;;;;6201442;28;20341;-79
2023/05/07 11:54:57;;;;;;;3.20;3.10;;;16.70;51.40;;;;;;6205418;28;20265;-80
2023/05/07 11:58:01;;;;;;;4.27;3.90;;;16.40;52.00;;;;;;6217939;28;20583;-81
2023/05/07 12:01:05;;;;;;;2.70;2.70;;;16.40;52.10;;;;;;6230056;28;20773;-80
2023/05/07 12:04:08;;;;;;;3.07;2.97;;;16.40;53.10;;;;;;6229209;28;20375;-79
2023/05/07 12:07:15;;;;;;;3.10;3.00;;;16.20;51.90;;;;;;6237842;28;20773;-81
2023/05/07 12:10:19;;;;;;;3.20;2.90;;;16.10;52.00;;;;;;6232190;28;20238;-78
2023/05/07 12:13:25;;;;;;;3.10;3.00;;;16.20;52.50;;;;;;6237511;28;20230;-78
2023/05/07 12:16:29;;;;;;;2.80;2.70;;;16.40;52.00;;;;;;6234507;28;20233;-80
2023/05/07 12:19:34;;;;;;;3.13;3.00;;;16.70;52.60;;;;;;6245689;28;20228;-79
2023/05/07 12:22:37;;;;;;;3.07;2.97;;;17.00;51.20;;;;;;6241146;28;20932;-79
2023/05/07 12:25:46;;;;;;;2.90;2.70;;;17.20;51.30;;;;;;6275121;28;20277;-81
2023/05/07 12:28:51;;;;;;;2.80;2.67;;;17.40;50.90;;;;;;6240502;28;20859;-80
2023/05/07 12:31:54;;;;;;;2.77;2.67;;;17.50;49.80;;;;;;6236172;28;20243;-79
2023/05/07 12:34:57;;;;;;;3.53;2.77;;;17.50;49.70;;;;;;6247978;28;20242;-79
2023/05/07 12:38:04;;;;;;;3.20;3.00;;;17.00;49.80;;;;;;6249789;28;20242;-80
2023/05/07 12:41:09;;;;;;;2.90;2.70;;;16.90;50.40;;;;;;6249255;28;20246;-79
2023/05/07 12:44:16;;;;;;;2.70;2.70;;;16.80;50.90;;;;;;6255989;28;20255;-80
2023/05/07 12:47:19;;;;;;;3.60;3.50;;;16.80;51.20;;;;;;6258546;28;20263;-80
2023/05/07 12:50:22;;;;;;;2.97;2.87;;;16.90;50.70;;;;;;6242846;28;20870;-80
2023/05/07 12:53:27;;;;;;;2.67;2.67;;;17.00;50.30;;;;;;6243801;28;20238;-81
2023/05/07 12:56:32;;;;;;;2.90;2.80;;;17.00;50.80;;;;;;6237035;28;20246;-79
2023/05/07 12:59:39;;;;;;;2.87;2.87;;;17.20;51.20;;;;;;6238111;28;20245;-79
2023/05/07 13:02:45;;;;;;;2.87;2.67;;;17.40;50.40;;;;;;6244379;28;20372;-81
2023/05/07 13:05:48;;;;;;;2.60;2.50;;;17.50;49.60;;;;;;6226272;28;20259;-79
2023/05/07 13:08:51;;;;;;;2.23;2.23;;;17.40;49.50;;;;;;6213200;28;20235;-79
2023/05/07 13:11:54;;;;;;;3.77;2.50;;;17.50;49.40;;;;;;6211935;28;20246;-80
2023/05/07 13:14:58;;;;;;;2.43;2.40;;;17.50;49.60;;;;;;6211647;28;20249;-80
2023/05/07 13:18:02;;;;;;;2.70;2.70;;;17.50;48.40;;;;;;6207329;28;20244;-80
2023/05/07 13:21:05;;;;;;;2.23;2.10;;;17.60;48.40;;;;;;6222786;28;20271;-80
2023/05/07 13:24:09;;;;;;;2.40;2.40;;;17.50;48.50;;;;;;6212799;28;20244;-79
2023/05/07 13:27:12;;;;;;;2.73;2.73;;;17.50;49.10;;;;;;6225966;28;20247;-80
2023/05/07 13:30:16;;;;;;;2.90;2.70;;;17.80;48.00;;;;;;6213303;28;20231;-79
2023/05/07 13:33:21;;;;;;;2.77;2.60;;;17.60;49.00;;;;;;6221314;28;20231;-79
2023/05/07 13:36:24;;;;;;;2.83;2.70;;;17.60;49.30;;;;;;6208462;28;20261;-79
2023/05/07 13:39:27;;;;;;;2.60;2.50;;;17.80;48.60;;;;;;6211158;28;20806;-80
2023/05/07 13:42:31;;;;;;;2.60;2.43;;;18.00;49.10;;;;;;6211999;28;20244;-79
2023/05/07 13:45:36;;;;;;;2.33;2.30;;;18.20;48.60;;;;;;6213402;28;21606;-81
2023/05/07 13:48:39;;;;;;;2.40;2.40;;;17.90;48.50;;;;;;6243910;28;20721;-78
2023/05/07 13:51:42;;;;;;;2.30;2.30;;;17.80;48.60;;;;;;6246804;28;20234;-79
2023/05/07 13:54:45;;;;;;;2.80;2.80;;;17.80;48.50;;;;;;6242763;28;20230;-80
2023/05/07 13:57:48;;;;;;;2.60;2.50;;;17.80;48.70;;;;;;6238102;28;20234;-80
2023/05/07 14:00:53;;;;;;;3.43;3.23;;;17.60;48.90;;;;;;6240348;28;20611;-80
2023/05/07 14:03:57;;;;;;;3.03;2.83;;;17.70;48.80;;;;;;6228704;28;20340;-80
2023/05/07 14:07:00;;;;;;;2.27;2.27;;;17.80;49.50;;;;;;6227307;28;20241;-79
2023/05/07 14:10:03;;;;;;;2.83;2.83;;;18.10;48.90;;;;;;6232538;28;20326;-78
2023/05/07 14:13:07;;;;;;;2.87;2.70;;;18.10;49.30;;;;;;6231792;28;20305;-79
2023/05/07 14:16:12;;;;;;;2.73;2.60;;;17.80;48.40;;;;;;6229183;28;20242;-80
2023/05/07 14:19:15;;;;;;;3.10;3.00;;;17.50;48.50;;;;;;6232659;28;20238;-77
2023/05/07 14:22:18;;;;;;;2.70;2.57;;;17.20;49.00;;;;;;6234896;28;20235;-77
2023/05/07 14:25:21;;;;;;;2.73;2.70;;;17.10;49.20;;;;;;6232589;28;20254;-75
2023/05/07 14:28:25;;;;;;;2.83;2.73;;;17.00;49.40;;;;;;6232615;28;20310;-78
2023/05/07 14:31:30;;;;;;;2.90;2.80;;;17.00;49.30;;;;;;6229459;28;20242;-78
2023/05/07 14:34:33;;;;;;;2.77;2.60;;;16.70;49.40;;;;;;6234518;28;20388;-78
2023/05/07 14:37:36;;;;;;;2.53;2.53;;;16.60;49.80;;;;;;6231823;28;20237;-77
2023/05/07 14:40:39;;;;;;;3.17;3.07;;;16.50;49.70;;;;;;6231604;28;20238;-77
2023/05/07 14:43:43;;;;;;;2.97;2.90;;;16.50;49.60;;;;;;6231101;28;20227;-78
2023/05/07 14:46:48;;;;;;;2.77;2.67;;;16.40;49.60;;;;;;6211025;28;20239;-77
2023/05/07 14:49:52;;;;;;;5.43;5.13;;;16.30;50.10;;;;;;6207473;28;20239;-79
2023/05/07 14:52:55;;;;;;;3.70;3.60;;;16.20;49.80;;;;;;6224927;28;20244;-79
2023/05/07 14:55:59;;;;;;;3.30;3.20;;;16.00;50.30;;;;;;6218718;28;20607;-78
2023/05/07 14:59:03;;;;;;;2.87;2.73;;;16.20;50.50;;;;;;6213679;28;20242;-77
2023/05/07 15:02:08;;;;;;;3.17;3.07;;;16.50;50.20;;;;;;6212280;28;20738;-80
2023/05/07 15:05:11;;;;;;;2.70;2.60;;;16.80;50.80;;;;;;6210794;28;20325;-80
2023/05/07 15:08:15;;;;;;;2.47;2.47;;;16.90;50.40;;;;;;6212301;28;20235;-81
2023/05/07 15:11:18;;;;;;;2.30;2.30;;;16.90;49.80;;;;;;6202551;28;20240;-80
2023/05/07 15:14:21;;;;;;;2.20;2.20;;;17.40;50.10;;;;;;6208431;28;20242;-81
2023/05/07 15:17:26;;;;;;;2.40;2.40;;;17.40;49.70;;;;;;6210232;28;20255;-79
2023/05/07 15:20:29;;;;;;;2.50;2.40;;;17.40;49.50;;;;;;6200507;28;20330;-79
2023/05/07 15:23:33;;;;;;;2.40;2.40;;;17.40;49.70;;;;;;6208166;28;20230;-79
2023/05/07 15:26:35;;;;;;;2.60;2.40;;;17.20;49.20;;;;;;6207951;28;20228;-81
2023/05/07 15:29:39;;;;;;;3.50;3.40;;;17.30;49.50;;;;;;6219229;28;20227;-80
2023/05/07 15:32:43;;;;;;;2.43;2.43;;;17.40;49.70;;;;;;6215457;28;20238;-79
2023/05/07 15:35:46;;;;;;;2.90;2.70;;;17.30;49.40;;;;;;6236090;28;20227;-81
2023/05/07 15:38:49;;;;;;;2.47;2.47;;;17.00;50.00;;;;;;6235305;28;20240;-80
2023/05/07 15:41:52;;;;;;;2.73;2.53;;;16.90;50.00;;;;;;6231339;28;20842;-80
2023/05/07 15:44:56;;;;;;;2.50;2.40;;;16.80;50.00;;;;;;6236448;28;20591;-79
2023/05/07 15:48:00;;;;;;;2.50;2.40;;;16.70;50.20;;;;;;6222260;28;20242;-80
2023/05/07 15:51:04;;;;;;;2.30;2.20;;;16.50;49.70;;;;;;6215761;28;20243;-76
2023/05/07 15:54:07;;;;;;;2.53;2.43;;;16.50;49.50;;;;;;6224572;28;20231;-79